Latest Weather Observations for Clermont Airport

IDQ60801

Issued at 7:32 pm EST Tuesday 4 August 2015 (issued every 30 minutes, with the page automatically refreshed every 10 minutes)

About weather observations | Map of weather stations | Latest weather observations for QLD | Other Formats
Station Details ID: 035124 Name: CLERMONT AIRPORT Lat: -22.78 Lon: 147.62 Height: 270.27 m
Data from the previous 72 hours. | See also: Recent months at Clermont Airport
Date/Time
EST
Temp
°C
App
Temp
°C
Dew
Point
Rel
Hum
%
Delta-T
°C
Wind Press
QNH
hPa
Press
MSL
hPa
Rain
since 9 am
mm
Dir
 
Spd
km/h
Gust
km/h
Spd
kts
Gust
kts
04/07:30pm 14.0 12.4 2.6 46 5.1 CALM 0 0 0 0 1018.1 1017.5 0.0
04/07:00pm 18.2 16.7 2.9 36 7.1 CALM 0 0 0 0 1017.7 1017.2 0.0
04/06:30pm 19.6 17.4 3.3 34 7.8 SSE 4 6 2 3 1017.5 1017.0 0.0
04/06:00pm 20.6 18.0 3.3 32 8.3 SE 6 7 3 4 1017.3 1016.8 0.0
04/05:30pm 22.0 19.3 3.6 30 9.0 SE 7 13 4 7 1017.1 1016.6 0.0
04/05:00pm 22.7 19.6 3.8 29 9.3 SSE 9 17 5 9 1017.0 1016.5 0.0
04/04:30pm 22.9 19.4 3.4 28 9.5 SE 11 17 6 9 1017.0 1016.5 0.0
04/04:00pm 23.4 19.6 3.9 28 9.7 SSE 13 19 7 10 1017.0 1016.5 0.0
04/03:30pm 23.4 19.3 4.4 29 9.5 SSW 15 22 8 12 1017.0 1016.5 0.0
04/03:00pm 23.0 20.6 4.5 30 9.2 S 6 17 3 9 1017.1 1016.6 0.0
04/02:30pm 22.5 20.0 4.5 31 9.0 SSE 7 13 4 7 1017.4 1016.9 0.0
04/02:00pm 22.5 20.0 4.5 31 9.0 SSE 7 15 4 8 1018.1 1017.5 0.0
04/01:30pm 21.7 18.4 4.3 32 8.6 SSE 11 20 6 11 1018.5 1017.9 0.0
04/01:00pm 21.1 17.3 3.8 32 8.4 SSE 13 19 7 10 1018.9 1018.3 0.0
04/12:30pm 20.8 17.4 4.0 33 8.2 S 11 20 6 11 1019.3 1018.8 0.0
04/12:00pm 20.4 16.2 4.0 34 8.0 SE 15 20 8 11 1019.8 1019.3 0.0
04/11:30am 19.8 15.6 3.9 35 7.7 ESE 15 24 8 13 1020.4 1019.9 0.0
04/11:00am 19.0 14.8 3.6 36 7.3 SE 15 26 8 14 1020.9 1020.4 0.0
04/10:30am 17.9 13.2 3.4 38 6.8 SE 17 24 9 13 1021.3 1020.8 0.0
04/10:00am 17.4 12.7 3.3 39 6.6 ESE 17 24 9 13 1021.6 1021.1 0.0
04/09:30am 16.0 10.8 2.4 40 6.2 SE 19 30 10 16 1022.0 1021.4 0.0
04/09:00am 15.4 10.9 2.2 41 5.9 SE 15 24 8 13 1021.7 1021.2 0.0
04/08:30am 14.9 9.6 2.1 42 5.7 SE 19 28 10 15 1021.5 1021.0 0.0
04/08:00am 13.8 9.3 2.1 45 5.2 SE 15 26 8 14 1021.2 1020.7 0.0
04/07:30am 13.6 9.1 1.9 45 5.2 SSE 15 24 8 13 1020.8 1020.3 0.0
04/07:00am 13.5 8.2 1.8 45 5.1 SSE 19 26 10 14 1020.4 1019.9 0.0
04/06:30am 13.7 9.2 2.3 46 5.1 SSE 15 26 8 14 1019.8 1019.3 0.0
04/06:00am 13.9 9.8 2.5 46 5.1 SSE 13 22 7 12 1019.3 1018.8 0.0
04/05:30am 14.3 10.8 3.7 49 4.9 SSE 11 15 6 8 1018.7 1018.1 0.0
04/05:00am 14.8 12.0 5.3 53 4.5 SSE 9 19 5 10 1018.2 1017.6 0.0
04/04:30am 15.5 12.4 5.7 52 4.8 SSE 11 19 6 10 1018.1 1017.5 0.0
04/04:00am 16.1 13.1 6.0 51 4.9 SSE 11 17 6 9 1018.1 1017.5 0.0
04/03:30am 16.6 13.7 6.4 51 5.1 SSE 11 17 6 9 1017.9 1017.4 0.0
04/03:00am 16.9 14.7 6.4 50 5.2 SSE 7 17 4 9 1017.7 1017.2 0.0
04/02:30am 17.5 15.0 6.7 49 5.4 SSE 9 15 5 8 1017.6 1017.1 0.0
04/02:00am 17.3 15.2 6.8 50 5.3 S 7 15 4 8 1017.6 1017.1 0.0
04/01:30am 16.3 13.8 6.4 52 4.9 SSW 9 11 5 6 1017.6 1017.1 0.0
04/01:00am 14.9 13.7 6.5 57 4.1 SSE 2 6 1 3 1017.7 1017.2 0.0
04/12:30am 13.7 12.6 5.3 57 4.0 CALM 0 2 0 1 1017.4 1016.9 0.0
04/12:00am 15.1 12.2 6.7 57 4.1 SSW 11 15 6 8 1017.6 1017.1 0.0
 
Date/Time
EST
Temp
°C
App
Temp
°C
Dew
Point
Rel
Hum
%
Delta-T
°C
Wind Press
QNH
hPa
Press
MSL
hPa
Rain
since 9 am
mm
Dir
 
Spd
km/h
Gust
km/h
Spd
kts
Gust
kts
03/11:30pm 12.9 11.8 5.3 60 3.6 CALM 0 4 0 2 1017.2 1016.7 0.0
03/11:00pm 12.8 11.3 5.2 60 3.6 SW 2 6 1 3 1017.3 1016.8 0.0
03/10:30pm 13.1 11.9 4.8 57 3.9 CALM 0 0 0 0 1017.2 1016.7 0.0
03/10:00pm 14.5 13.3 6.3 58 4.0 SE 2 6 1 3 1017.4 1016.9 0.0
03/09:30pm 14.8 13.7 5.3 53 4.6 CALM 0 0 0 0 1017.4 1016.9 0.0
03/09:00pm 15.1 14.2 5.9 54 4.5 CALM 0 0 0 0 1017.6 1017.1 0.0
03/08:30pm 16.9 16.0 6.1 49 5.3 CALM 0 0 0 0 1017.6 1017.1 0.0
03/08:00pm 17.2 16.2 5.8 47 5.6 CALM 0 0 0 0 1017.5 1017.0 0.0
03/07:30pm 17.6 16.2 5.5 45 5.9 WSW 2 6 1 3 1017.3 1016.8 0.0
03/07:00pm 19.4 17.7 5.8 41 6.8 WNW 4 7 2 4 1017.0 1016.5 0.0
03/06:30pm 21.1 20.1 5.5 36 7.8 CALM 0 0 0 0 1016.8 1016.3 0.0
03/06:00pm 23.9 22.9 5.8 31 9.3 CALM 0 0 0 0 1016.5 1016.0 0.0
03/05:30pm 26.6 25.1 6.6 28 10.6 SSE 4 6 2 3 1016.4 1015.9 0.0
03/05:00pm 27.2 25.7 6.6 27 11.0 ESE 4 6 2 3 1016.3 1015.8 0.0
03/04:30pm 28.0 26.6 7.3 27 11.2 WSW 4 13 2 7 1016.2 1015.7 0.0
03/04:00pm 28.2 26.7 6.9 26 11.5 S 4 7 2 4 1016.2 1015.7 0.0
03/03:30pm 28.1 26.4 7.4 27 11.2 ESE 6 11 3 6 1016.2 1015.7 0.0
03/03:00pm 27.9 25.9 7.2 27 11.2 S 7 13 4 7 1016.5 1016.0 0.0
03/02:30pm 27.8 26.5 7.6 28 11.0 W 4 7 2 4 1016.8 1016.3 0.0
03/02:00pm 27.5 25.8 7.4 28 10.9 SW 6 13 3 7 1017.1 1016.6 0.0
03/01:30pm 27.3 24.9 7.2 28 10.8 SSE 9 22 5 12 1017.6 1017.1 0.0
03/01:00pm 26.5 24.3 8.0 31 10.0 SSW 9 20 5 11 1018.3 1017.7 0.0
03/12:30pm 26.3 25.0 9.2 34 9.5 WSW 6 13 3 7 1018.8 1018.2 0.0
03/12:00pm 25.7 24.2 9.1 35 9.1 N 7 11 4 6 1019.3 1018.8 0.0
03/11:30am 24.8 23.9 11.4 43 7.7 NNW 7 19 4 10 1019.8 1019.3 0.0
03/11:00am 24.1 22.8 11.4 45 7.2 N 9 17 5 9 1020.2 1019.7 0.0
03/10:30am 23.6 22.3 12.6 50 6.4 NNW 11 19 6 10 1020.6 1020.1 0.0
03/10:00am 22.5 20.9 12.7 54 5.6 NW 13 20 7 11 1020.9 1020.4 0.0
03/09:30am 21.7 20.5 12.8 57 5.1 NNW 11 20 6 11 1021.1 1020.6 0.0
03/09:00am 19.5 19.3 11.8 61 4.3 NNE 4 7 2 4 1020.9 1020.4 0.0
03/08:30am 17.1 16.6 10.9 67 3.4 NE 4 7 2 4 1020.7 1020.2 0.0
03/08:00am 14.4 13.4 7.5 63 3.4 N 2 4 1 2 1020.4 1019.9 0.0
03/07:30am 9.4 8.1 4.2 70 2.3 CALM 0 0 0 0 1020.4 1019.9 0.0
03/07:00am 6.2 4.6 2.3 76 1.6 CALM 0 0 0 0 1020.2 1019.7 0.0
03/06:30am 6.0 4.0 2.3 77 1.5 WSW 2 4 1 2 1019.9 1019.4 0.0
03/06:00am 6.3 4.6 2.0 74 1.8 CALM 0 0 0 0 1019.4 1018.9 0.0
03/05:30am 6.3 4.6 2.0 74 1.8 CALM 0 0 0 0 1019.3 1018.8 0.0
03/05:00am 6.8 5.2 2.5 74 1.8 CALM 0 0 0 0 1019.3 1018.8 0.0
03/04:30am 6.7 5.0 2.0 72 1.9 CALM 0 0 0 0 1019.2 1018.7 0.0
03/04:00am 7.2 5.6 2.3 71 2.0 CALM 0 0 0 0 1019.0 1018.5 0.0
03/03:30am 7.2 4.4 2.3 71 2.1 W 6 7 3 4 1019.2 1018.7 0.0
03/03:00am 7.2 5.6 2.5 72 2.0 CALM 0 0 0 0 1019.2 1018.7 0.0
03/02:30am 7.7 6.1 2.4 69 2.2 CALM 0 0 0 0 1019.2 1018.7 0.0
03/02:00am 7.8 5.8 2.5 69 2.2 SW 2 6 1 3 1019.5 1019.0 0.0
03/01:30am 8.1 6.5 2.6 68 2.3 CALM 0 0 0 0 1019.8 1019.3 0.0
03/01:00am 8.3 6.4 2.8 68 2.4 WSW 2 6 1 3 1019.9 1019.4 0.0
03/12:30am 8.8 7.3 2.8 66 2.6 CALM 0 0 0 0 1020.0 1019.5 0.0
03/12:00am 9.1 6.8 2.9 65 2.7 W 4 4 2 2 1020.3 1019.8 0.0
 
Date/Time
EST
Temp
°C
App
Temp
°C
Dew
Point
Rel
Hum
%
Delta-T
°C
Wind Press
QNH
hPa
Press
MSL
hPa
Rain
since 9 am
mm
Dir
 
Spd
km/h
Gust
km/h
Spd
kts
Gust
kts
02/11:30pm 10.2 8.4 3.7 64 2.9 NNE 2 4 1 2 1020.4 1019.9 0.0
02/11:00pm 10.9 9.6 3.9 62 3.1 CALM 0 0 0 0 1020.4 1019.9 0.0
02/10:30pm 11.7 10.4 4.0 59 3.5 CALM 0 0 0 0 1020.5 1020.0 0.0
02/10:00pm 11.3 9.6 3.8 60 3.4 WSW 2 4 1 2 1020.4 1019.9 0.0
02/09:30pm 12.3 10.9 3.8 56 3.9 CALM 0 0 0 0 1020.3 1019.8 0.0
02/09:00pm 12.9 11.3 4.6 57 3.8 ENE 2 4 1 2 1020.2 1019.7 0.0
02/08:30pm 13.3 11.9 3.7 52 4.4 CALM 0 0 0 0 1019.8 1019.3 0.0
02/08:00pm 14.4 13.0 3.8 49 4.9 CALM 0 2 0 1 1019.8 1019.3 0.0
02/07:30pm 15.1 13.3 3.3 45 5.4 W 2 4 1 2 1019.7 1019.2 0.0
02/07:00pm 17.4 16.0 3.3 39 6.6 CALM 0 4 0 2 1019.6 1019.1 0.0
02/06:30pm 21.1 20.0 5.1 35 8.0 CALM 0 0 0 0 1019.4 1018.9 0.0
02/06:00pm 21.9 20.3 4.5 32 8.6 N 2 4 1 2 1019.2 1018.7 0.0
02/05:30pm 24.1 21.6 4.5 28 9.9 N 7 11 4 6 1019.1 1018.6 0.0
02/05:00pm 25.9 23.0 4.4 25 10.9 N 9 15 5 8 1018.8 1018.2 0.0
02/04:30pm 26.2 22.6 5.2 26 10.9 N 13 22 7 12 1018.7 1018.1 0.0
02/04:00pm 26.7 24.0 5.6 26 11.0 N 9 20 5 11 1018.8 1018.2 0.0
02/03:30pm 26.5 23.0 5.5 26 10.9 NNE 13 19 7 10 1019.0 1018.5 0.0
02/03:00pm 26.5 24.3 6.0 27 10.7 N 7 17 4 9 1019.3 1018.8 0.0
02/02:30pm 26.3 22.7 6.9 29 10.3 N 15 24 8 13 1019.6 1019.1 0.0
02/02:00pm 25.6 23.4 7.7 32 9.6 NNE 9 20 5 11 1019.9 1019.4 0.0
02/01:30pm 25.1 22.0 7.3 32 9.5 NNW 13 20 7 11 1020.6 1020.1 0.0
02/01:00pm 24.3 22.2 8.3 36 8.6 NNE 9 20 5 11 1021.2 1020.7 0.0
02/12:30pm 24.3 21.9 8.7 37 8.5 N 11 20 6 11 1021.8 1021.3 0.0
02/12:00pm 23.7 20.7 9.3 40 7.9 N 15 22 8 12 1022.5 1022.0 0.0
02/11:30am 23.1 20.4 10.2 44 7.2 N 15 28 8 15 1023.1 1022.6 0.0
02/11:00am 21.7 18.6 10.2 48 6.3 N 17 26 9 14 1023.4 1022.9 0.0
02/10:30am 21.3 18.0 10.8 51 5.8 N 19 32 10 17 1023.7 1023.2 0.0
02/10:00am 19.7 18.5 11.7 60 4.5 N 9 15 5 8 1024.2 1023.7 0.0
02/09:30am 18.1 16.9 11.7 66 3.6 NE 9 13 5 7 1024.3 1023.8 0.0
02/09:00am 16.0 15.1 10.7 71 2.8 NE 6 13 3 7 1024.0 1023.5 0.0
02/08:30am 15.2 15.2 11.0 76 2.3 SE 2 4 1 2 1023.6 1023.1 0.0
02/08:00am 11.0 10.3 6.9 76 2.0 CALM 0 0 0 0 1023.4 1022.9 0.0
02/07:30am 6.8 5.5 3.9 82 1.3 CALM 0 0 0 0 1023.3 1022.8 0.0
02/07:00am 4.6 2.6 2.3 85 0.9 W 2 4 1 2 1022.9 1022.4 0.0
02/06:30am 4.6 2.2 2.3 85 0.9 WSW 4 4 2 2 1022.4 1021.9 0.0
02/06:00am 5.2 3.7 2.9 85 1.0 CALM 0 2 0 1 1022.1 1021.5 0.0
02/05:30am 5.5 3.2 2.8 83 1.1 W 4 4 2 2 1021.7 1021.2 0.0
02/05:00am 6.0 3.7 3.0 81 1.3 SW 4 6 2 3 1021.4 1020.9 0.0
02/04:30am 6.2 4.0 3.2 81 1.3 W 4 6 2 3 1021.2 1020.7 0.0
02/04:00am 6.6 4.4 3.4 80 1.4 SW 4 6 2 3 1021.1 1020.6 0.0
02/03:30am 7.1 5.2 2.6 73 1.9 SSW 2 4 1 2 1020.8 1020.3 0.0
02/03:00am 7.9 6.4 3.2 72 2.0 CALM 0 2 0 1 1020.9 1020.4 0.0
02/02:30am 7.8 6.0 3.3 73 1.9 S 2 4 1 2 1021.1 1020.6 0.0
02/02:00am 11.9 10.3 4.6 61 3.4 NE 2 4 1 2 1021.3 1020.8 0.0
02/01:30am 12.5 10.8 5.7 63 3.2 NE 4 6 2 3 1021.4 1020.9 0.0
02/01:00am 12.1 11.1 5.7 65 3.0 CALM 0 0 0 0 1021.6 1021.1 0.0
02/12:30am 12.6 11.5 5.3 61 3.4 CALM 0 2 0 1 1021.6 1021.1 0.0
02/12:00am 14.0 12.5 6.6 61 3.6 NE 4 6 2 3 1021.6 1021.1 0.0
 
Date/Time
EST
Temp
°C
App
Temp
°C
Dew
Point
Rel
Hum
%
Delta-T
°C
Wind Press
QNH
hPa
Press
MSL
hPa
Rain
since 9 am
mm
Dir
 
Spd
km/h
Gust
km/h
Spd
kts
Gust
kts
01/11:30pm 13.9 12.7 6.3 60 3.7 NNE 2 4 1 2 1021.6 1021.1 0.0
01/11:00pm 14.6 13.0 6.4 58 4.0 NNE 4 4 2 2 1021.8 1021.3 0.0
01/10:30pm 14.7 12.4 5.8 55 4.3 NNE 7 9 4 5 1021.8 1021.3 0.0
01/10:00pm 15.5 13.8 6.0 53 4.6 NNE 4 6 2 3 1021.8 1021.3 0.0
01/09:30pm 15.5 14.5 5.7 52 4.8 CALM 0 0 0 0 1021.6 1021.1 0.0
01/09:00pm 16.7 15.1 6.5 51 5.1 ENE 4 6 2 3 1021.4 1020.9 0.0
01/08:30pm 14.8 13.6 4.8 51 4.7 CALM 0 0 0 0 1021.2 1020.7 0.0
01/08:00pm 15.8 14.7 5.1 49 5.1 CALM 0 0 0 0 1020.9 1020.4 0.0

Other Formats:

Comma delimited format used in spreadsheet applications
http://www.bom.gov.au/fwo/IDQ60801/IDQ60801.94395.axf

JavaScript Object Notation format (JSON) in row-major order
http://www.bom.gov.au/fwo/IDQ60801/IDQ60801.94395.json